DBMPW EDDW-EDDV

Flight info

Callsign DBMPW
Flight time 0h 20m
Altitude 9000
Route NIE2M NIE NIE1R
Aircraft C750/M-SDGHIM3RWXY/S

Departure

Time 2026-05-04 20:17
Airport Bremen Airport (EDDW)

Arrival

Time 2026-05-04 20:38
Airport Hannover Airport (EDDV)
Time Latitude Longitude Altitude Speed Heading
2026-05-04 20:04 53.05011 8.78148 9 ft 0 kts 49°
2026-05-04 20:13 53.05012 8.78148 9 ft 0 kts 49°
2026-05-04 20:13 53.05018 8.78160 9 ft 4 kts 49°
2026-05-04 20:13 53.05015 8.78215 9 ft 5 kts 137°
2026-05-04 20:14 53.04975 8.78254 8 ft 8 kts 165°
2026-05-04 20:14 53.04908 8.78296 7 ft 12 kts 140°
2026-05-04 20:14 53.04848 8.78386 6 ft 8 kts 118°
2026-05-04 20:14 53.04846 8.78490 6 ft 9 kts 87°
2026-05-04 20:15 53.04849 8.78606 6 ft 9 kts 87°
2026-05-04 20:15 53.04812 8.78661 6 ft 9 kts 177°
2026-05-04 20:15 53.04786 8.78662 6 ft 0 kts 178°
2026-05-04 20:16 53.04781 8.78663 6 ft 2 kts 178°
2026-05-04 20:16 53.04727 8.78665 6 ft 9 kts 179°
2026-05-04 20:16 53.04686 8.78706 6 ft 7 kts 84°
2026-05-04 20:17 53.04688 8.78731 6 ft 16 kts 85°
2026-05-04 20:17 53.04705 8.79551 14 ft 122 kts 87°
2026-05-04 20:17 53.04731 8.81268 450 ft 164 kts 86°
2026-05-04 20:17 53.04800 8.83226 1150 ft 188 kts 85°
2026-05-04 20:18 53.04867 8.85496 1619 ft 205 kts 86°
2026-05-04 20:18 53.04917 8.87923 2304 ft 214 kts 89°
2026-05-04 20:18 53.04422 8.90361 2591 ft 247 kts 126°
2026-05-04 20:18 53.02963 8.92076 2812 ft 277 kts 154°
2026-05-04 20:19 53.01348 8.93730 3254 ft 253 kts 139°
2026-05-04 20:19 53.00109 8.95295 3925 ft 210 kts 144°
2026-05-04 20:19 52.98865 8.96691 4019 ft 218 kts 145°
2026-05-04 20:19 52.97586 8.98111 4145 ft 227 kts 146°
2026-05-04 20:20 52.96172 8.99669 4656 ft 263 kts 146°
2026-05-04 20:20 52.94631 9.01370 5784 ft 275 kts 147°
2026-05-04 20:20 52.93050 9.03106 7091 ft 278 kts 148°
2026-05-04 20:20 52.91447 9.04859 8352 ft 281 kts 148°
2026-05-04 20:21 52.89798 9.06659 8916 ft 289 kts 149°
2026-05-04 20:21 52.88134 9.08478 8960 ft 285 kts 149°
2026-05-04 20:21 52.84829 9.12086 8978 ft 286 kts 149°
2026-05-04 20:22 52.83170 9.13897 8979 ft 286 kts 149°
2026-05-04 20:22 52.81510 9.15705 8978 ft 287 kts 149°
2026-05-04 20:22 52.79846 9.17518 8979 ft 287 kts 149°
2026-05-04 20:22 52.78184 9.19326 8979 ft 287 kts 148°
2026-05-04 20:23 52.76506 9.21149 8985 ft 288 kts 149°
2026-05-04 20:23 52.74838 9.22974 8982 ft 290 kts 146°
2026-05-04 20:23 52.73323 9.25162 8972 ft 292 kts 134°
2026-05-04 20:23 52.72112 9.27862 8972 ft 293 kts 121°
2026-05-04 20:24 52.71249 9.30874 8951 ft 289 kts 113°
2026-05-04 20:24 52.70487 9.33917 8955 ft 284 kts 114°
2026-05-04 20:24 52.69752 9.36872 8941 ft 280 kts 113°
2026-05-04 20:24 52.69017 9.39845 8963 ft 276 kts 113°
2026-05-04 20:25 52.68300 9.42743 8943 ft 274 kts 113°
2026-05-04 20:25 52.67582 9.45626 8957 ft 271 kts 113°
2026-05-04 20:25 52.66868 9.48494 8954 ft 269 kts 113°
2026-05-04 20:25 52.66161 9.51330 8945 ft 267 kts 113°
2026-05-04 20:26 52.65464 9.54134 8925 ft 264 kts 113°
2026-05-04 20:26 52.64775 9.56929 8954 ft 261 kts 113°
2026-05-04 20:26 52.64108 9.59629 8664 ft 262 kts 113°
2026-05-04 20:26 52.63420 9.62431 8063 ft 267 kts 113°
2026-05-04 20:27 52.62734 9.65258 7449 ft 269 kts 114°
2026-05-04 20:27 52.62033 9.68130 6937 ft 268 kts 114°
2026-05-04 20:27 52.61348 9.70953 6482 ft 268 kts 114°
2026-05-04 20:27 52.60645 9.73840 5905 ft 275 kts 114°
2026-05-04 20:28 52.59926 9.76717 5438 ft 275 kts 114°
2026-05-04 20:28 52.59188 9.79615 5045 ft 269 kts 114°
2026-05-04 20:28 52.58483 9.82359 4966 ft 266 kts 114°
2026-05-04 20:28 52.57757 9.85188 4963 ft 266 kts 114°
2026-05-04 20:29 52.57046 9.87969 4955 ft 264 kts 114°
2026-05-04 20:29 52.56345 9.90682 4849 ft 252 kts 114°
2026-05-04 20:29 52.55658 9.93315 4497 ft 252 kts 114°
2026-05-04 20:29 52.54959 9.95939 4214 ft 251 kts 114°
2026-05-04 20:30 52.54248 9.98556 4001 ft 250 kts 114°
2026-05-04 20:30 52.53548 10.01111 3961 ft 245 kts 114°
2026-05-04 20:30 52.52858 10.03609 3949 ft 238 kts 114°
2026-05-04 20:30 52.52155 10.06137 3961 ft 243 kts 114°
2026-05-04 20:31 52.51452 10.08667 3963 ft 247 kts 114°
2026-05-04 20:31 52.50739 10.11247 3954 ft 250 kts 114°
2026-05-04 20:31 52.49983 10.13799 3951 ft 251 kts 121°
2026-05-04 20:31 52.48915 10.16012 3949 ft 250 kts 139°
2026-05-04 20:32 52.47343 10.17088 3966 ft 246 kts 178°
2026-05-04 20:32 52.45757 10.16346 3989 ft 237 kts 217°
2026-05-04 20:32 52.44750 10.14253 3999 ft 238 kts 243°
2026-05-04 20:32 52.44346 10.11691 3956 ft 229 kts 269°
2026-05-04 20:33 52.44344 10.09093 3955 ft 227 kts 270°
2026-05-04 20:33 52.44374 10.06558 3951 ft 221 kts 272°
2026-05-04 20:33 52.44430 10.04077 3994 ft 210 kts 273°
2026-05-04 20:33 52.44499 10.01646 3784 ft 218 kts 274°
2026-05-04 20:34 52.44573 9.99149 3521 ft 222 kts 274°
2026-05-04 20:34 52.44648 9.96676 3244 ft 219 kts 275°
2026-05-04 20:34 52.44723 9.94202 2949 ft 213 kts 275°
2026-05-04 20:34 52.44797 9.91806 2663 ft 207 kts 275°
2026-05-04 20:35 52.44868 9.89478 2382 ft 202 kts 275°
2026-05-04 20:35 52.44936 9.87224 2113 ft 198 kts 275°
2026-05-04 20:35 52.45002 9.84984 1845 ft 195 kts 274°
2026-05-04 20:35 52.45065 9.82848 1575 ft 178 kts 274°
2026-05-04 20:36 52.45123 9.80890 1385 ft 167 kts 274°
2026-05-04 20:36 52.45178 9.79020 1155 ft 166 kts 273°
2026-05-04 20:36 52.45234 9.77152 921 ft 163 kts 272°
2026-05-04 20:36 52.45288 9.75346 713 ft 153 kts 272°
2026-05-04 20:37 52.45329 9.73692 503 ft 141 kts 271°
2026-05-04 20:37 52.45375 9.72090 334 ft 140 kts 270°
2026-05-04 20:37 52.45420 9.70512 178 ft 131 kts 270°
2026-05-04 20:37 52.45449 9.69249 167 ft 82 kts 272°
2026-05-04 20:38 52.45474 9.68568 161 ft 51 kts 273°
2026-05-04 20:38 52.45483 9.68305 164 ft 10 kts 286°
2026-05-04 20:38 52.45532 9.68256 165 ft 9 kts 359°
2026-05-04 20:38 52.45568 9.68257 165 ft 0 kts
2026-05-04 20:39 52.45586 9.68257 165 ft 6 kts
2026-05-04 20:40 52.45642 9.68316 164 ft 14 kts 77°
2026-05-04 20:40 52.45641 9.68502 160 ft 17 kts 93°
2026-05-04 20:40 52.45633 9.68701 157 ft 17 kts 91°
2026-05-04 20:40 52.45628 9.68891 159 ft 15 kts 93°
2026-05-04 20:41 52.45626 9.69016 161 ft 6 kts 92°
2026-05-04 20:41 52.45625 9.69079 162 ft 4 kts 90°
2026-05-04 20:41 52.45660 9.69144 163 ft 0 kts
2026-05-04 20:41 52.45677 9.69146 163 ft 8 kts
2026-05-04 20:42 52.45767 9.69193 164 ft 16 kts 26°
2026-05-04 20:42 52.45870 9.69129 163 ft 17 kts 323°
2026-05-04 20:42 52.45969 9.69004 162 ft 18 kts 323°
2026-05-04 20:42 52.46071 9.68879 164 ft 18 kts 322°
2026-05-04 20:43 52.46163 9.68764 168 ft 11 kts 322°
2026-05-04 20:43 52.46229 9.68743 171 ft 9 kts 23°
2026-05-04 20:43 52.46267 9.68835 170 ft 13 kts 69°
2026-05-04 20:43 52.46310 9.69020 173 ft 21 kts 69°
2026-05-04 20:44 52.46366 9.69253 176 ft 21 kts 68°
2026-05-04 20:44 52.46421 9.69486 176 ft 21 kts 69°
2026-05-04 20:44 52.46456 9.69627 177 ft 9 kts 69°
2026-05-04 20:44 52.46453 9.69715 177 ft 5 kts 168°
2026-05-04 20:45 52.46431 9.69726 178 ft 0 kts 164°
2026-05-04 20:45 52.46427 9.69735 178 ft 1 kts 90°
2026-05-04 20:45 52.46437 9.69778 177 ft 5 kts 68°
2026-05-04 20:45 52.46454 9.69838 177 ft 6 kts 65°
2026-05-04 20:46 52.46455 9.69896 177 ft 5 kts 158°
2026-05-04 20:46 52.46442 9.69889 177 ft 0 kts 252°